VG00 weather

Mears Field
Eastville, Virginia, United States

Public forecast

Using degrees Fahrenheit for public forecast. Weather courtesy of forecast.io.

METAR (pilot weather report)

Closest report is Accomack County Airport, 18.8 nm (34.9 km) NNE. Retrieved 2019/09/22 19:35 UTC (0 seconds ago):

KMFV 221935Z AUTO 17010G16KT 150V220 10SM CLR 29/19 A3011 RMK AO2 T02860189

TAF (pilot weather forecast)

Forecast is more than 12 hours old.

Closest forecast is Langley Air Force Base, 26.2 nm (48.6 km) SW. Retrieved 2019/09/21 01:06 UTC (2 days ago):

TAF KLFI 210100Z 2101/2207 VRB06KT 9999 SKC QNH3022INS TX27/2120Z TN14/2109Z LAST NO AMDS AFT 2101 NEXT 2309